createdAt,value
2023-04-24T00:01:44.057Z,100.00
2023-04-24T00:04:12.195Z,100.00
2023-04-24T00:06:39.933Z,100.00
2023-04-24T00:09:07.366Z,100.00
2023-04-24T00:11:34.951Z,100.00
2023-04-24T00:14:02.537Z,100.00
2023-04-24T00:16:30.185Z,100.00
2023-04-24T00:18:57.728Z,100.00
2023-04-24T00:21:26.785Z,100.00
2023-04-24T00:23:54.588Z,100.00
2023-04-24T00:26:22.075Z,100.00
2023-04-24T00:28:49.701Z,100.00
2023-04-24T00:31:17.289Z,100.00
2023-04-24T00:33:44.741Z,100.00
2023-04-24T00:36:12.216Z,100.00
2023-04-24T00:38:39.654Z,100.00
2023-04-24T00:41:07.711Z,100.00
2023-04-24T00:43:36.118Z,100.00
2023-04-24T00:46:03.695Z,100.00
2023-04-24T00:48:32.764Z,100.00
2023-04-24T00:51:00.464Z,100.00
2023-04-24T00:53:28.066Z,100.00
2023-04-24T00:55:55.737Z,100.00
2023-04-24T00:58:24.059Z,100.00
2023-04-24T01:00:54.311Z,100.00
2023-04-24T01:03:23.968Z,100.00
2023-04-24T01:05:52.400Z,100.00
2023-04-24T01:08:21.214Z,100.00
2023-04-24T01:10:49.796Z,100.00
2023-04-24T01:13:20.964Z,100.00
2023-04-24T01:15:48.819Z,100.00
2023-04-24T01:18:16.666Z,100.00
2023-04-24T01:20:46.180Z,100.00
2023-04-24T01:23:13.731Z,100.00
2023-04-24T01:25:41.524Z,100.00
2023-04-24T01:28:09.207Z,100.00
2023-04-24T01:30:37.435Z,100.00
2023-04-24T01:33:05.228Z,100.00
2023-04-24T01:35:33.239Z,100.00
2023-04-24T01:38:00.969Z,100.00
2023-04-24T01:40:28.368Z,100.00
2023-04-24T01:42:59.563Z,100.00
2023-04-24T01:45:27.244Z,100.00
2023-04-24T01:47:54.799Z,100.00
2023-04-24T01:50:22.394Z,100.00
2023-04-24T01:52:49.888Z,100.00
2023-04-24T01:55:17.951Z,100.00
2023-04-24T01:57:46.965Z,100.00
2023-04-24T02:00:14.665Z,100.00
2023-04-24T02:02:44.253Z,100.00
2023-04-24T02:05:13.368Z,100.00
2023-04-24T02:07:41.044Z,100.00
2023-04-24T02:10:10.553Z,100.00
2023-04-24T02:12:43.453Z,100.00
2023-04-24T02:15:11.605Z,100.00
2023-04-24T02:17:39.532Z,100.00
2023-04-24T02:20:08.778Z,100.00
2023-04-24T02:22:36.290Z,100.00
2023-04-24T02:25:04.083Z,100.00
2023-04-24T02:27:31.553Z,100.00
2023-04-24T02:29:59.027Z,100.00
2023-04-24T02:32:26.485Z,100.00
2023-04-24T02:34:54.130Z,100.00
2023-04-24T02:37:21.854Z,100.00
2023-04-24T02:39:49.360Z,100.00
2023-04-24T02:42:16.971Z,100.00
2023-04-24T02:44:44.489Z,100.00
2023-04-24T02:47:12.058Z,100.00
2023-04-24T02:49:39.579Z,100.00
2023-04-24T02:52:07.073Z,100.00
2023-04-24T02:54:34.591Z,100.00
2023-04-24T02:57:02.386Z,100.00
2023-04-24T02:59:30.951Z,100.00
2023-04-24T03:01:58.571Z,100.00
2023-04-24T03:04:26.734Z,100.00
2023-04-24T03:06:55.875Z,100.00
2023-04-24T03:09:23.401Z,100.00
2023-04-24T03:11:51.249Z,100.00
2023-04-24T03:14:18.805Z,100.00
2023-04-24T03:16:46.494Z,100.00
2023-04-24T03:19:14.172Z,100.00
2023-04-24T03:22:04.791Z,100.00
2023-04-24T03:24:33.445Z,100.00
2023-04-24T03:27:01.348Z,100.00
2023-04-24T03:29:56.630Z,100.00
2023-04-24T03:32:31.529Z,100.00
2023-04-24T03:34:59.265Z,100.00
2023-04-24T03:37:27.551Z,100.00
2023-04-24T03:40:08.231Z,100.00
2023-04-24T03:42:39.237Z,100.00
2023-04-24T03:45:08.142Z,100.00
2023-04-24T03:47:37.968Z,100.00
2023-04-24T03:50:07.232Z,100.00
2023-04-24T03:52:35.182Z,100.00
2023-04-24T03:55:03.996Z,100.00
2023-04-24T03:57:36.940Z,100.00
2023-04-24T04:00:14.139Z,100.00
2023-04-24T04:02:49.815Z,100.00
2023-04-24T04:05:17.508Z,100.00
2023-04-24T04:07:44.977Z,100.00
2023-04-24T04:10:13.117Z,100.00
2023-04-24T04:12:40.630Z,100.00
2023-04-24T04:15:08.816Z,100.00
2023-04-24T04:17:36.688Z,100.00
2023-04-24T04:20:11.140Z,100.00
2023-04-24T04:22:43.434Z,100.00
2023-04-24T04:25:14.723Z,100.00
2023-04-24T04:27:43.478Z,100.00
2023-04-24T04:30:13.609Z,100.00
2023-04-24T04:32:53.644Z,100.00
2023-04-24T04:35:23.195Z,100.00
2023-04-24T04:37:52.678Z,100.00
2023-04-24T04:40:38.865Z,100.00
2023-04-24T04:43:08.098Z,100.00
2023-04-24T04:45:44.485Z,100.00
2023-04-24T04:48:23.738Z,100.00
2023-04-24T04:50:52.106Z,100.00
2023-04-24T04:53:21.650Z,100.00
2023-04-24T04:55:49.241Z,100.00
2023-04-24T04:58:17.921Z,100.00
2023-04-24T05:00:47.394Z,100.00
2023-04-24T05:03:28.716Z,100.00
2023-04-24T05:06:01.942Z,100.00
2023-04-24T05:08:32.759Z,100.00
2023-04-24T05:11:00.963Z,100.00
2023-04-24T05:13:39.126Z,100.00
2023-04-24T05:16:19.678Z,100.00
2023-04-24T05:18:48.582Z,100.00
2023-04-24T05:21:19.745Z,100.00
2023-04-24T05:23:51.301Z,100.00
2023-04-24T05:26:28.252Z,100.00
2023-04-24T05:28:56.966Z,100.00
2023-04-24T05:31:24.520Z,100.00
2023-04-24T05:33:52.548Z,100.00
2023-04-24T05:36:20.024Z,100.00
2023-04-24T05:38:47.600Z,100.00
2023-04-24T05:41:16.312Z,100.00
2023-04-24T05:43:43.808Z,100.00
2023-04-24T05:46:13.105Z,100.00
2023-04-24T05:48:40.647Z,100.00
2023-04-24T05:51:08.045Z,100.00
2023-04-24T05:53:35.642Z,100.00
2023-04-24T05:56:03.342Z,100.00
2023-04-24T05:58:32.132Z,100.00
2023-04-24T06:01:03.009Z,100.00
2023-04-24T06:03:30.734Z,100.00
2023-04-24T06:05:58.312Z,100.00
2023-04-24T06:08:26.713Z,100.00
2023-04-24T06:10:54.195Z,100.00
2023-04-24T06:13:23.064Z,100.00
2023-04-24T06:16:19.758Z,100.00
2023-04-24T06:18:54.492Z,100.00
2023-04-24T06:21:22.263Z,100.00
2023-04-24T06:23:50.787Z,100.00
2023-04-24T06:26:18.291Z,100.00
2023-04-24T06:28:45.831Z,100.00
2023-04-24T06:31:13.324Z,100.00
2023-04-24T06:33:41.322Z,100.00
2023-04-24T06:36:10.792Z,100.00
2023-04-24T06:38:38.423Z,100.00
2023-04-24T06:41:06.373Z,100.00
2023-04-24T06:43:34.272Z,100.00
2023-04-24T06:46:01.747Z,100.00
2023-04-24T06:48:29.193Z,100.00
2023-04-24T06:50:56.660Z,100.00
2023-04-24T06:53:24.152Z,100.00
2023-04-24T06:55:51.651Z,100.00
2023-04-24T06:58:19.161Z,100.00
2023-04-24T07:00:46.813Z,100.00
2023-04-24T07:03:14.489Z,100.00
2023-04-24T07:05:42.781Z,100.00
2023-04-24T07:08:12.536Z,100.00
2023-04-24T07:10:40.308Z,100.00
2023-04-24T07:13:08.258Z,100.00
2023-04-24T07:15:35.929Z,100.00
2023-04-24T07:18:05.613Z,100.00
2023-04-24T07:20:34.514Z,100.00
2023-04-24T07:23:02.309Z,100.00
2023-04-24T07:25:29.834Z,100.00
2023-04-24T07:27:57.293Z,100.00
2023-04-24T07:30:24.862Z,100.00
2023-04-24T07:32:52.670Z,100.00
2023-04-24T07:35:21.106Z,100.00
2023-04-24T07:37:49.109Z,100.00
2023-04-24T07:40:18.069Z,100.00
2023-04-24T07:42:45.720Z,100.00
2023-04-24T07:45:13.166Z,100.00
2023-04-24T07:47:41.044Z,100.00
2023-04-24T07:50:08.856Z,100.00
2023-04-24T07:52:36.311Z,100.00
2023-04-24T07:55:04.419Z,100.00
2023-04-24T07:57:31.927Z,100.00
2023-04-24T07:59:59.404Z,100.00
2023-04-24T08:02:28.208Z,100.00
2023-04-24T08:04:56.995Z,100.00
2023-04-24T08:07:25.765Z,100.00
2023-04-24T08:09:53.224Z,100.00
2023-04-24T08:12:20.782Z,100.00
2023-04-24T08:14:48.307Z,100.00
2023-04-24T08:17:15.897Z,100.00
2023-04-24T08:19:48.689Z,100.00
2023-04-24T08:22:16.711Z,100.00
2023-04-24T08:24:44.975Z,100.00
2023-04-24T08:27:12.491Z,100.00
2023-04-24T08:29:39.972Z,100.00
2023-04-24T08:32:07.879Z,100.00
2023-04-24T08:34:35.646Z,100.00
2023-04-24T08:37:04.291Z,100.00
2023-04-24T08:39:32.109Z,100.00
2023-04-24T08:42:06.510Z,100.00
2023-04-24T08:44:34.493Z,100.00
2023-04-24T08:47:03.671Z,100.00
2023-04-24T08:49:31.736Z,100.00
2023-04-24T08:52:00.909Z,100.00
2023-04-24T08:54:29.925Z,100.00
2023-04-24T08:57:07.705Z,100.00
2023-04-24T08:59:36.504Z,100.00
2023-04-24T09:02:05.814Z,98.17
2023-04-24T09:04:35.030Z,89.13
2023-04-24T09:07:04.470Z,94.13
2023-04-24T09:09:33.859Z,93.77
2023-04-24T09:12:01.717Z,98.03
2023-04-24T09:14:32.367Z,100.00
2023-04-24T09:16:59.977Z,100.00
2023-04-24T09:19:27.511Z,100.00
2023-04-24T09:21:55.462Z,100.00
2023-04-24T09:24:26.124Z,100.00
2023-04-24T09:27:00.158Z,100.00
2023-04-24T09:29:28.291Z,100.00
2023-04-24T09:31:55.973Z,100.00
2023-04-24T09:34:25.170Z,100.00
2023-04-24T09:36:53.401Z,100.00
2023-04-24T09:39:21.431Z,100.00
2023-04-24T09:41:58.947Z,100.00
2023-04-24T09:44:28.760Z,100.00
2023-04-24T09:47:01.757Z,100.00
2023-04-24T09:49:31.107Z,98.80
2023-04-24T09:52:12.113Z,100.00
2023-04-24T09:54:41.630Z,100.00
2023-04-24T09:57:10.366Z,100.00
2023-04-24T09:59:44.245Z,96.96
2023-04-24T10:02:20.814Z,94.43
2023-04-24T10:05:00.882Z,91.52
2023-04-24T10:07:28.930Z,93.94
2023-04-24T10:09:56.783Z,90.87
2023-04-24T10:12:26.138Z,87.59
2023-04-24T10:14:54.395Z,94.42
2023-04-24T10:17:22.954Z,93.49
2023-04-24T10:19:50.692Z,93.02
2023-04-24T10:22:18.987Z,86.74
2023-04-24T10:24:48.551Z,85.95
2023-04-24T10:27:16.733Z,83.18
2023-04-24T10:29:45.603Z,80.97
2023-04-24T10:32:13.139Z,78.30
2023-04-24T10:34:40.832Z,69.74
2023-04-24T10:37:08.429Z,69.06
2023-04-24T10:39:36.519Z,69.63
2023-04-24T10:42:16.492Z,65.79
2023-04-24T10:44:44.183Z,69.91
2023-04-24T10:47:15.602Z,60.20
2023-04-24T10:49:43.859Z,59.10
2023-04-24T10:52:11.973Z,70.26
2023-04-24T10:54:45.933Z,71.72
2023-04-24T10:57:19.576Z,68.77
2023-04-24T10:59:48.647Z,64.23
2023-04-24T11:02:17.689Z,70.28
2023-04-24T11:04:46.373Z,66.61
2023-04-24T11:07:14.150Z,64.26
2023-04-24T11:09:44.266Z,66.32
2023-04-24T11:12:13.950Z,72.58
2023-04-24T11:15:02.564Z,75.42
2023-04-24T11:17:39.316Z,82.88
2023-04-24T11:20:26.101Z,83.04
2023-04-24T11:22:56.313Z,89.81
2023-04-24T11:25:24.613Z,85.66
2023-04-24T11:28:04.920Z,82.37
2023-04-24T11:30:34.826Z,87.33
2023-04-24T11:33:07.171Z,87.91
2023-04-24T11:35:42.219Z,90.12
2023-04-24T11:40:42.920Z,91.27
2023-04-24T11:43:12.245Z,90.36
2023-04-24T11:45:48.915Z,91.32
2023-04-24T11:48:22.554Z,94.67
2023-04-24T11:50:52.205Z,95.77
2023-04-24T11:53:22.655Z,92.29
2023-04-24T11:55:50.437Z,91.96
2023-04-24T11:58:22.999Z,96.49
2023-04-24T12:00:58.737Z,97.21
2023-04-24T12:03:26.999Z,90.79
2023-04-24T12:06:06.678Z,95.06
2023-04-24T12:08:37.202Z,95.48
2023-04-24T12:11:08.361Z,95.87
2023-04-24T12:13:36.787Z,100.00
2023-04-24T12:16:05.938Z,100.00
2023-04-24T12:18:33.538Z,99.67
2023-04-24T12:21:19.570Z,93.55
2023-04-24T12:23:49.670Z,78.93
2023-04-24T12:26:21.104Z,80.25
2023-04-24T12:28:50.883Z,62.78
2023-04-24T12:31:18.594Z,64.42
2023-04-24T12:33:46.200Z,66.48
2023-04-24T12:36:14.021Z,64.72
2023-04-24T12:38:46.008Z,70.13
2023-04-24T12:41:15.429Z,60.40
2023-04-24T12:43:56.627Z,57.26
2023-04-24T12:46:24.290Z,57.54
2023-04-24T12:48:51.806Z,56.93
2023-04-24T12:51:19.385Z,56.31
2023-04-24T12:53:46.857Z,53.63
2023-04-24T12:56:14.403Z,55.80
2023-04-24T12:58:41.861Z,55.81
2023-04-24T13:01:09.472Z,57.46
2023-04-24T13:03:37.110Z,61.44
2023-04-24T13:06:04.780Z,60.79
2023-04-24T13:08:32.294Z,66.03
2023-04-24T13:10:59.785Z,64.05
2023-04-24T13:13:27.416Z,60.02
2023-04-24T13:15:54.885Z,57.59
2023-04-24T13:18:23.098Z,57.79
2023-04-24T13:20:51.132Z,59.69
2023-04-24T13:23:18.601Z,56.13
2023-04-24T13:25:46.132Z,56.29
2023-04-24T13:28:13.743Z,55.51
2023-04-24T13:30:41.282Z,57.97
2023-04-24T13:33:08.785Z,55.08
2023-04-24T13:35:36.299Z,55.37
2023-04-24T13:38:07.110Z,52.39
2023-04-24T13:40:34.734Z,52.40
2023-04-24T13:43:02.631Z,53.62
2023-04-24T13:45:30.695Z,50.04
2023-04-24T13:47:58.498Z,50.09
2023-04-24T13:50:26.848Z,47.71
2023-04-24T13:52:55.284Z,48.02
2023-04-24T13:55:22.830Z,46.90
2023-04-24T13:57:50.451Z,48.41
2023-04-24T14:00:19.041Z,49.01
2023-04-24T14:02:46.835Z,48.46
2023-04-24T14:05:16.327Z,50.96
2023-04-24T14:07:43.865Z,53.31
2023-04-24T14:10:11.661Z,53.49
2023-04-24T14:12:39.326Z,54.22
2023-04-24T14:15:07.611Z,54.44
2023-04-24T14:17:35.354Z,53.09
2023-04-24T14:20:03.027Z,51.38
2023-04-24T14:22:30.581Z,50.14
2023-04-24T14:24:59.084Z,48.66
2023-04-24T14:27:27.622Z,48.64
2023-04-24T14:29:55.163Z,47.62
2023-04-24T14:32:22.786Z,49.38
2023-04-24T14:34:50.655Z,47.36
2023-04-24T14:37:18.219Z,48.51
2023-04-24T14:39:56.165Z,48.92
2023-04-24T14:42:29.903Z,49.20
2023-04-24T14:44:57.308Z,50.94
2023-04-24T14:47:24.896Z,51.57
2023-04-24T14:49:52.954Z,52.62
2023-04-24T14:52:21.206Z,48.90
2023-04-24T14:54:48.710Z,47.96
2023-04-24T14:57:16.673Z,46.08
2023-04-24T14:59:44.194Z,48.22
2023-04-24T15:02:16.658Z,49.90
2023-04-24T15:04:45.127Z,51.22
2023-04-24T15:07:12.845Z,52.22
2023-04-24T15:09:40.904Z,51.11
2023-04-24T15:12:09.194Z,52.16
2023-04-24T15:14:36.758Z,51.98
2023-04-24T15:17:04.338Z,53.32
2023-04-24T15:19:32.451Z,52.46
2023-04-24T15:22:00.069Z,53.81
2023-04-24T15:24:27.562Z,56.24
2023-04-24T15:26:57.825Z,54.39
2023-04-24T15:29:27.372Z,53.83
2023-04-24T15:31:54.811Z,52.22
2023-04-24T15:34:22.322Z,53.11
2023-04-24T15:36:49.877Z,54.42
2023-04-24T15:39:17.368Z,54.55
2023-04-24T15:41:44.900Z,53.48
2023-04-24T15:44:12.404Z,54.64
2023-04-24T15:46:39.939Z,56.76
2023-04-24T15:49:07.451Z,57.70
2023-04-24T15:51:34.950Z,56.92
2023-04-24T15:54:02.485Z,59.59
2023-04-24T15:56:31.462Z,63.42
2023-04-24T15:58:59.169Z,62.69
2023-04-24T16:01:26.727Z,61.32
2023-04-24T16:03:54.453Z,62.56
2023-04-24T16:06:22.271Z,61.48
2023-04-24T16:08:50.588Z,63.36
2023-04-24T16:11:18.121Z,62.18
2023-04-24T16:13:45.590Z,64.99
2023-04-24T16:16:13.679Z,69.59
2023-04-24T16:18:41.215Z,68.04
2023-04-24T16:21:09.581Z,70.59
2023-04-24T16:23:37.033Z,72.49
2023-04-24T16:26:04.637Z,73.84
2023-04-24T16:28:32.100Z,75.94
2023-04-24T16:30:59.691Z,76.80
2023-04-24T16:33:27.184Z,77.30
2023-04-24T16:35:55.622Z,79.68
2023-04-24T16:38:25.137Z,80.85
2023-04-24T16:40:52.647Z,81.50
2023-04-24T16:43:20.116Z,81.95
2023-04-24T16:45:47.591Z,83.63
2023-04-24T16:48:15.120Z,84.86
2023-04-24T16:50:42.628Z,81.90
2023-04-24T16:53:10.196Z,83.23
2023-04-24T16:55:37.970Z,82.34
2023-04-24T16:58:05.516Z,81.13
2023-04-24T17:00:33.134Z,76.93
2023-04-24T17:03:01.019Z,78.06
2023-04-24T17:05:28.727Z,77.86
2023-04-24T17:07:56.643Z,79.07
2023-04-24T17:10:24.260Z,81.08
2023-04-24T17:12:51.887Z,82.89
2023-04-24T17:15:19.321Z,85.54
2023-04-24T17:17:46.919Z,88.63
2023-04-24T17:20:22.107Z,90.01
2023-04-24T17:22:51.593Z,90.08
2023-04-24T17:25:19.196Z,87.63
2023-04-24T17:27:46.799Z,86.94
2023-04-24T17:30:14.913Z,89.26
2023-04-24T17:32:42.485Z,90.73
2023-04-24T17:35:10.837Z,89.73
2023-04-24T17:37:38.661Z,92.89
2023-04-24T17:40:07.053Z,93.86
2023-04-24T17:42:37.635Z,95.41
2023-04-24T17:45:06.517Z,97.28
2023-04-24T17:47:34.130Z,98.59
2023-04-24T17:50:01.648Z,100.00
2023-04-24T17:52:29.109Z,100.00
2023-04-24T17:54:56.585Z,100.00
2023-04-24T17:57:24.133Z,100.00
2023-04-24T17:59:51.687Z,100.00
2023-04-24T18:02:19.249Z,100.00
2023-04-24T18:04:47.046Z,100.00
2023-04-24T18:07:14.571Z,100.00
2023-04-24T18:09:42.211Z,100.00
2023-04-24T18:12:10.683Z,100.00
2023-04-24T18:14:38.267Z,100.00
2023-04-24T18:17:06.699Z,100.00
2023-04-24T18:19:34.247Z,100.00
2023-04-24T18:22:01.792Z,100.00
2023-04-24T18:24:29.282Z,100.00
2023-04-24T18:26:57.722Z,100.00
2023-04-24T18:29:25.229Z,100.00
2023-04-24T18:31:53.102Z,100.00
2023-04-24T18:34:20.653Z,100.00
2023-04-24T18:36:48.179Z,100.00
2023-04-24T18:39:15.613Z,100.00
2023-04-24T18:41:43.171Z,100.00
2023-04-24T18:44:11.744Z,100.00
2023-04-24T18:46:41.600Z,100.00
2023-04-24T18:49:09.244Z,100.00
2023-04-24T18:51:50.328Z,100.00
2023-04-24T18:54:20.859Z,100.00
2023-04-24T18:56:48.204Z,100.00
2023-04-24T18:59:16.093Z,100.00
2023-04-24T19:01:43.806Z,100.00
2023-04-24T19:04:11.678Z,100.00
2023-04-24T19:06:39.244Z,99.56
2023-04-24T19:09:06.930Z,100.00
2023-04-24T19:11:34.572Z,100.00
2023-04-24T19:14:04.305Z,100.00
2023-04-24T19:16:32.016Z,100.00
2023-04-24T19:18:59.539Z,100.00
2023-04-24T19:21:28.146Z,100.00
2023-04-24T19:23:57.096Z,100.00
2023-04-24T19:26:25.928Z,100.00
2023-04-24T19:28:53.828Z,100.00
2023-04-24T19:31:21.587Z,100.00
2023-04-24T19:33:49.189Z,100.00
2023-04-24T19:36:19.669Z,100.00
2023-04-24T19:38:47.956Z,100.00
2023-04-24T19:41:16.161Z,100.00
2023-04-24T19:43:43.820Z,100.00
2023-04-24T19:46:11.922Z,100.00
2023-04-24T19:48:39.553Z,100.00
2023-04-24T19:51:07.059Z,100.00
2023-04-24T19:53:34.554Z,100.00
2023-04-24T19:56:01.998Z,100.00
2023-04-24T19:58:32.550Z,100.00
2023-04-24T20:01:01.229Z,100.00
2023-04-24T20:03:33.293Z,100.00
2023-04-24T20:06:01.632Z,100.00
2023-04-24T20:08:29.223Z,100.00
2023-04-24T20:10:58.352Z,100.00
2023-04-24T20:13:31.968Z,100.00
2023-04-24T20:16:00.427Z,100.00
2023-04-24T20:18:28.065Z,100.00
2023-04-24T20:20:58.269Z,100.00
2023-04-24T20:23:26.675Z,100.00
2023-04-24T20:25:58.415Z,100.00
2023-04-24T20:28:30.437Z,100.00
2023-04-24T20:30:59.406Z,100.00
2023-04-24T20:33:28.677Z,100.00
2023-04-24T20:35:56.659Z,100.00
2023-04-24T20:38:24.519Z,100.00
2023-04-24T20:43:28.039Z,100.00
2023-04-24T20:45:58.293Z,100.00
2023-04-24T20:48:26.867Z,100.00
2023-04-24T20:50:54.912Z,100.00
2023-04-24T20:53:22.565Z,100.00
2023-04-24T20:55:50.129Z,100.00
2023-04-24T20:58:21.232Z,100.00
2023-04-24T21:00:48.961Z,100.00
2023-04-24T21:03:16.604Z,100.00
2023-04-24T21:05:44.131Z,100.00
2023-04-24T21:08:12.126Z,100.00
2023-04-24T21:10:39.615Z,100.00
2023-04-24T21:13:07.112Z,100.00
2023-04-24T21:15:35.071Z,100.00
2023-04-24T21:18:03.536Z,100.00
2023-04-24T21:20:31.142Z,100.00
2023-04-24T21:22:58.571Z,100.00
2023-04-24T21:25:26.469Z,100.00
2023-04-24T21:27:53.955Z,100.00
2023-04-24T21:30:22.193Z,100.00
2023-04-24T21:32:49.760Z,100.00
2023-04-24T21:35:17.354Z,100.00
2023-04-24T21:37:45.003Z,100.00
2023-04-24T21:40:12.631Z,100.00
2023-04-24T21:42:40.180Z,100.00
2023-04-24T21:45:08.349Z,100.00
2023-04-24T21:47:36.158Z,100.00
2023-04-24T21:50:04.957Z,100.00
2023-04-24T21:52:32.417Z,100.00
2023-04-24T21:54:59.882Z,100.00
2023-04-24T21:57:28.669Z,100.00
2023-04-24T21:59:56.466Z,100.00
2023-04-24T22:02:24.017Z,100.00
2023-04-24T22:04:53.115Z,100.00
2023-04-24T22:07:20.715Z,100.00
2023-04-24T22:09:48.243Z,100.00
2023-04-24T22:12:16.045Z,100.00
2023-04-24T22:14:44.014Z,100.00
2023-04-24T22:17:11.593Z,100.00
2023-04-24T22:19:40.629Z,100.00
2023-04-24T22:22:08.143Z,100.00
2023-04-24T22:24:36.731Z,100.00
2023-04-24T22:27:50.956Z,100.00
2023-04-24T22:30:18.601Z,100.00
2023-04-24T22:32:46.228Z,100.00
2023-04-24T22:35:13.812Z,100.00
2023-04-24T22:37:41.421Z,100.00
2023-04-24T22:40:10.253Z,100.00
2023-04-24T22:42:37.833Z,100.00
2023-04-24T22:45:08.130Z,100.00
2023-04-24T22:47:35.738Z,100.00
2023-04-24T22:50:03.548Z,100.00
2023-04-24T22:52:31.108Z,100.00
2023-04-24T22:54:58.683Z,100.00
2023-04-24T22:57:26.222Z,100.00
2023-04-24T22:59:54.458Z,100.00
2023-04-24T23:02:23.327Z,100.00
2023-04-24T23:04:50.978Z,100.00
2023-04-24T23:07:18.413Z,100.00
2023-04-24T23:09:46.382Z,100.00
2023-04-24T23:12:13.788Z,100.00
2023-04-24T23:14:41.325Z,100.00
2023-04-24T23:17:08.861Z,100.00
2023-04-24T23:19:36.353Z,100.00
2023-04-24T23:22:03.919Z,100.00
2023-04-24T23:24:31.423Z,100.00
2023-04-24T23:26:58.923Z,100.00
2023-04-24T23:29:26.679Z,100.00
2023-04-24T23:31:54.140Z,100.00
2023-04-24T23:34:21.786Z,100.00
2023-04-24T23:36:50.745Z,100.00
2023-04-24T23:39:18.523Z,100.00
2023-04-24T23:41:46.362Z,100.00
2023-04-24T23:44:13.825Z,100.00
2023-04-24T23:46:41.300Z,100.00
2023-04-24T23:49:09.279Z,100.00
2023-04-24T23:51:36.981Z,100.00
2023-04-24T23:54:04.674Z,100.00
2023-04-24T23:56:32.114Z,100.00
2023-04-24T23:58:59.603Z,100.00
